createdAt,value
2023-05-22T00:01:56.848Z,97.74
2023-05-22T00:04:23.653Z,97.70
2023-05-22T00:06:50.424Z,97.38
2023-05-22T00:09:17.239Z,98.24
2023-05-22T00:11:43.974Z,98.18
2023-05-22T00:14:10.840Z,99.28
2023-05-22T00:16:37.775Z,100.00
2023-05-22T00:19:04.700Z,100.00
2023-05-22T00:21:35.193Z,100.00
2023-05-22T00:24:02.373Z,99.62
2023-05-22T00:26:29.121Z,99.18
2023-05-22T00:28:55.981Z,100.00
2023-05-22T00:31:23.636Z,100.00
2023-05-22T00:33:50.568Z,99.61
2023-05-22T00:36:18.818Z,99.99
2023-05-22T00:38:45.563Z,99.28
2023-05-22T01:15:44.654Z,100.00
2023-05-22T01:18:37.700Z,100.00
2023-05-22T01:21:26.567Z,100.00
2023-05-22T01:24:18.225Z,100.00
2023-05-22T01:27:18.405Z,100.00
2023-05-22T01:30:04.305Z,100.00
2023-05-22T01:32:38.615Z,100.00
2023-05-22T01:35:15.550Z,100.00
2023-05-22T01:37:49.022Z,100.00
2023-05-22T01:42:58.691Z,100.00
2023-05-22T01:45:26.580Z,100.00
2023-05-22T01:47:53.330Z,100.00
2023-05-22T01:50:21.301Z,100.00
2023-05-22T01:53:28.600Z,100.00
2023-05-22T01:56:01.985Z,100.00
2023-05-22T01:58:49.696Z,100.00
2023-05-22T02:01:19.829Z,100.00
2023-05-22T02:03:51.938Z,100.00
2023-05-22T02:06:20.061Z,100.00
2023-05-22T02:08:47.642Z,100.00
2023-05-22T02:11:16.786Z,100.00
2023-05-22T02:13:43.517Z,100.00
2023-05-22T02:16:10.260Z,100.00
2023-05-22T02:21:15.526Z,100.00
2023-05-22T02:23:42.266Z,100.00
2023-05-22T02:26:08.953Z,100.00
2023-05-22T02:28:35.698Z,100.00
2023-05-22T02:31:04.042Z,100.00
2023-05-22T02:33:31.135Z,100.00
2023-05-22T02:35:57.898Z,100.00
2023-05-22T02:38:24.559Z,100.00
2023-05-22T02:40:51.425Z,100.00
2023-05-22T02:43:18.123Z,100.00
2023-05-22T02:45:44.805Z,100.00
2023-05-22T02:48:11.599Z,100.00
2023-05-22T02:50:38.452Z,100.00
2023-05-22T02:53:05.361Z,100.00
2023-05-22T02:55:32.139Z,100.00
2023-05-22T02:57:58.818Z,100.00
2023-05-22T03:00:25.581Z,100.00
2023-05-22T03:02:52.334Z,100.00
2023-05-22T03:05:19.130Z,100.00
2023-05-22T03:07:48.365Z,100.00
2023-05-22T03:10:16.063Z,100.00
2023-05-22T03:15:20.914Z,100.00
2023-05-22T03:17:47.672Z,100.00
2023-05-22T03:20:17.319Z,100.00
2023-05-22T03:22:44.857Z,100.00
2023-05-22T03:25:11.911Z,100.00
2023-05-22T03:27:41.197Z,100.00
2023-05-22T03:30:09.189Z,100.00
2023-05-22T03:32:37.944Z,100.00
2023-05-22T03:35:05.590Z,100.00
2023-05-22T03:37:32.354Z,100.00
2023-05-22T03:39:59.086Z,100.00
2023-05-22T03:42:25.748Z,100.00
2023-05-22T03:44:52.463Z,100.00
2023-05-22T03:47:19.302Z,100.00
2023-05-22T03:49:46.074Z,100.00
2023-05-22T03:52:12.758Z,100.00
2023-05-22T03:57:10.799Z,100.00
2023-05-22T03:59:37.528Z,100.00
2023-05-22T04:02:04.494Z,100.00
2023-05-22T04:04:32.586Z,100.00
2023-05-22T04:06:59.541Z,100.00
2023-05-22T04:09:32.181Z,100.00
2023-05-22T04:11:59.062Z,100.00
2023-05-22T04:14:26.380Z,100.00
2023-05-22T04:16:53.062Z,100.00
2023-05-22T04:19:20.141Z,100.00
2023-05-22T04:24:19.121Z,100.00
2023-05-22T04:26:45.837Z,100.00
2023-05-22T04:29:14.776Z,100.00
2023-05-22T04:31:42.322Z,100.00
2023-05-22T04:34:15.068Z,100.00
2023-05-22T04:39:14.202Z,100.00
2023-05-22T04:41:41.504Z,100.00
2023-05-22T04:44:08.364Z,100.00
2023-05-22T04:46:36.204Z,100.00
2023-05-22T04:49:03.612Z,100.00
2023-05-22T04:51:31.469Z,100.00
2023-05-22T04:53:58.754Z,100.00
2023-05-22T04:56:36.120Z,100.00
2023-05-22T04:59:04.982Z,100.00
2023-05-22T05:01:33.245Z,100.00
2023-05-22T05:04:00.866Z,100.00
2023-05-22T05:06:27.693Z,100.00
2023-05-22T05:08:55.185Z,100.00
2023-05-22T05:11:21.890Z,100.00
2023-05-22T05:13:48.632Z,98.68
2023-05-22T05:16:15.395Z,97.10
2023-05-22T05:21:15.413Z,92.75
2023-05-22T05:23:42.825Z,93.38
2023-05-22T05:26:09.688Z,91.24
2023-05-22T05:28:37.364Z,89.03
2023-05-22T05:31:04.231Z,89.72
2023-05-22T05:33:31.019Z,88.92
2023-05-22T05:35:57.732Z,88.38
2023-05-22T05:38:24.383Z,87.83
2023-05-22T05:40:51.606Z,88.26
2023-05-22T05:43:18.506Z,86.88
2023-05-22T05:45:45.291Z,85.99
2023-05-22T05:48:12.306Z,84.56
2023-05-22T05:50:39.482Z,83.04
2023-05-22T05:55:39.648Z,83.33
2023-05-22T05:58:06.366Z,82.22
2023-05-22T06:00:33.074Z,81.31
2023-05-22T06:02:59.969Z,81.75
2023-05-22T06:05:27.225Z,81.96
2023-05-22T06:07:54.790Z,82.57
2023-05-22T06:10:21.699Z,81.50
2023-05-22T06:12:48.429Z,81.01
2023-05-22T06:15:15.139Z,82.39
2023-05-22T06:17:43.207Z,82.15
2023-05-22T06:20:10.361Z,80.62
2023-05-22T06:22:37.749Z,80.47
2023-05-22T06:25:05.591Z,79.06
2023-05-22T06:27:32.312Z,80.53
2023-05-22T06:30:00.426Z,80.59
2023-05-22T06:32:27.301Z,80.05
2023-05-22T06:34:54.233Z,79.28
2023-05-22T06:37:20.970Z,79.51
2023-05-22T06:39:47.614Z,79.23
2023-05-22T06:42:14.354Z,79.20
2023-05-22T06:44:41.078Z,77.67
2023-05-22T06:47:08.107Z,77.09
2023-05-22T06:49:34.811Z,76.60
2023-05-22T06:52:03.892Z,77.94
2023-05-22T06:54:31.806Z,76.68
2023-05-22T06:56:59.708Z,76.18
2023-05-22T06:59:26.557Z,73.84
2023-05-22T07:01:53.311Z,75.70
2023-05-22T07:04:20.050Z,74.60
2023-05-22T07:09:21.239Z,75.78
2023-05-22T07:11:47.957Z,75.18
2023-05-22T07:14:14.731Z,76.51
2023-05-22T07:16:41.804Z,77.05
2023-05-22T07:19:08.992Z,77.85
2023-05-22T07:21:36.165Z,78.07
2023-05-22T07:24:08.290Z,77.37
2023-05-22T07:26:36.216Z,75.96
2023-05-22T07:29:03.358Z,73.55
2023-05-22T07:31:31.823Z,72.82
2023-05-22T07:33:58.490Z,73.20
2023-05-22T07:36:25.173Z,71.59
2023-05-22T07:38:51.880Z,72.00
2023-05-22T07:43:50.464Z,70.71
2023-05-22T07:46:17.340Z,72.04
2023-05-22T07:48:44.122Z,70.08
2023-05-22T07:51:10.932Z,69.53
2023-05-22T07:53:37.767Z,70.16
2023-05-22T07:56:04.558Z,69.12
2023-05-22T07:58:31.253Z,68.47
2023-05-22T08:00:58.250Z,64.79
2023-05-22T08:03:25.181Z,65.77
2023-05-22T08:05:52.079Z,65.45
2023-05-22T08:08:18.814Z,67.80
2023-05-22T08:11:02.475Z,67.52
2023-05-22T08:13:30.887Z,65.80
2023-05-22T08:16:00.110Z,66.41
2023-05-22T08:18:29.769Z,66.54
2023-05-22T08:20:56.892Z,65.73
2023-05-22T08:23:23.686Z,64.92
2023-05-22T08:28:21.814Z,64.44
2023-05-22T08:30:48.555Z,61.29
2023-05-22T08:33:15.301Z,63.33
2023-05-22T08:35:42.077Z,63.85
2023-05-22T08:38:08.797Z,63.39
2023-05-22T08:40:42.569Z,62.50
2023-05-22T08:43:11.299Z,61.13
2023-05-22T08:45:38.031Z,60.54
2023-05-22T08:48:06.429Z,62.29
2023-05-22T08:50:37.821Z,61.48
2023-05-22T08:53:08.381Z,61.00
2023-05-22T08:55:35.175Z,60.19
2023-05-22T08:58:02.542Z,60.24
2023-05-22T09:00:30.127Z,60.78
2023-05-22T09:02:58.124Z,60.10
2023-05-22T09:05:26.986Z,59.74
2023-05-22T09:07:56.524Z,59.51
2023-05-22T09:10:25.833Z,60.49
2023-05-22T09:13:28.566Z,58.76
2023-05-22T09:15:59.969Z,58.15
2023-05-22T09:18:32.507Z,59.28
2023-05-22T09:20:59.701Z,58.48
2023-05-22T09:26:02.914Z,56.55
2023-05-22T09:28:35.536Z,57.66
2023-05-22T09:31:04.491Z,56.73
2023-05-22T09:33:32.493Z,57.05
2023-05-22T09:35:59.499Z,54.48
2023-05-22T09:38:29.115Z,54.47
2023-05-22T09:40:56.854Z,54.78
2023-05-22T09:43:27.676Z,56.39
2023-05-22T09:48:34.887Z,54.35
2023-05-22T09:51:02.575Z,53.57
2023-05-22T09:53:32.507Z,55.15
2023-05-22T09:56:00.473Z,53.89
2023-05-22T09:58:31.082Z,55.67
2023-05-22T10:00:58.915Z,53.31
2023-05-22T10:03:27.322Z,53.71
2023-05-22T10:05:58.033Z,51.89
2023-05-22T10:08:27.809Z,51.76
2023-05-22T10:10:54.606Z,51.55
2023-05-22T10:13:22.261Z,52.38
2023-05-22T10:15:50.017Z,52.17
2023-05-22T10:18:17.699Z,53.25
2023-05-22T10:20:47.250Z,52.41
2023-05-22T10:23:18.249Z,51.58
2023-05-22T10:25:46.252Z,51.98
2023-05-22T10:28:21.741Z,50.63
2023-05-22T10:30:53.806Z,52.11
2023-05-22T10:33:32.105Z,51.46
2023-05-22T10:36:04.211Z,51.34
2023-05-22T10:39:02.073Z,50.86
2023-05-22T10:41:28.956Z,50.66
2023-05-22T10:43:57.591Z,50.67
2023-05-22T10:46:24.321Z,49.32
2023-05-22T10:48:55.846Z,49.52
2023-05-22T10:51:23.912Z,49.48
2023-05-22T10:53:59.109Z,49.91
2023-05-22T10:56:34.309Z,49.74
2023-05-22T10:59:03.056Z,48.90
2023-05-22T11:01:29.782Z,48.41
2023-05-22T11:04:16.243Z,50.66
2023-05-22T11:06:46.845Z,49.32
2023-05-22T11:09:19.209Z,49.07
2023-05-22T11:11:47.006Z,48.26
2023-05-22T11:14:17.385Z,48.11
2023-05-22T11:16:44.128Z,47.42
2023-05-22T11:19:22.729Z,47.13
2023-05-22T11:21:50.847Z,47.08
2023-05-22T11:24:20.660Z,47.28
2023-05-22T11:27:07.636Z,46.43
2023-05-22T11:29:35.238Z,45.28
2023-05-22T11:32:02.491Z,45.81
2023-05-22T11:37:03.162Z,45.80
2023-05-22T11:39:32.783Z,46.03
2023-05-22T11:41:59.481Z,46.24
2023-05-22T11:44:28.015Z,45.62
2023-05-22T11:46:54.862Z,45.94
2023-05-22T11:49:25.478Z,45.57
2023-05-22T11:51:52.439Z,47.31
2023-05-22T11:54:19.355Z,48.16
2023-05-22T11:56:46.712Z,46.35
2023-05-22T11:59:13.442Z,45.21
2023-05-22T12:01:40.136Z,46.94
2023-05-22T12:04:06.957Z,45.90
2023-05-22T12:06:34.073Z,46.09
2023-05-22T12:11:37.511Z,45.72
2023-05-22T12:14:05.032Z,46.25
2023-05-22T12:16:38.911Z,45.84
2023-05-22T12:19:07.369Z,46.33
2023-05-22T12:21:35.715Z,42.86
2023-05-22T12:24:06.478Z,42.87
2023-05-22T12:26:33.449Z,43.54
2023-05-22T12:29:00.726Z,45.02
2023-05-22T12:31:27.600Z,44.43
2023-05-22T12:33:57.897Z,43.69
2023-05-22T12:36:39.933Z,43.00
2023-05-22T12:39:11.306Z,43.94
2023-05-22T12:41:38.762Z,41.93
2023-05-22T12:44:05.847Z,43.21
2023-05-22T12:46:33.088Z,44.01
2023-05-22T12:49:01.351Z,43.75
2023-05-22T12:51:31.391Z,42.58
2023-05-22T12:56:31.390Z,41.22
2023-05-22T12:58:58.713Z,40.09
2023-05-22T13:01:26.447Z,40.46
2023-05-22T13:03:53.330Z,40.68
2023-05-22T13:06:20.966Z,42.00
2023-05-22T13:08:47.827Z,41.59
2023-05-22T13:11:14.750Z,43.25
2023-05-22T13:13:41.526Z,43.11
2023-05-22T13:16:09.863Z,41.36
2023-05-22T13:18:36.611Z,43.71
2023-05-22T13:21:03.413Z,43.14
2023-05-22T13:23:30.127Z,44.11
2023-05-22T13:25:56.905Z,43.26
2023-05-22T13:28:23.822Z,43.99
2023-05-22T13:30:50.537Z,44.09
2023-05-22T13:33:17.328Z,43.44
2023-05-22T13:38:18.815Z,42.95
2023-05-22T13:40:48.188Z,42.96
2023-05-22T13:43:15.291Z,40.97
2023-05-22T13:45:42.126Z,41.26
2023-05-22T13:50:46.194Z,41.89
2023-05-22T13:53:12.985Z,42.82
2023-05-22T13:55:39.916Z,43.30
2023-05-22T13:58:06.910Z,42.59
2023-05-22T14:00:33.616Z,42.75
2023-05-22T14:03:00.510Z,43.60
2023-05-22T14:05:27.437Z,43.54
2023-05-22T14:07:54.480Z,44.56
2023-05-22T14:10:21.176Z,43.12
2023-05-22T14:12:47.946Z,43.74
2023-05-22T14:15:16.315Z,44.16
2023-05-22T14:17:43.055Z,44.17
2023-05-22T14:20:10.301Z,44.21
2023-05-22T14:22:48.004Z,42.03
2023-05-22T14:25:23.109Z,43.66
2023-05-22T14:27:49.783Z,44.20
2023-05-22T14:30:16.590Z,44.30
2023-05-22T14:32:43.650Z,43.55
2023-05-22T14:35:10.378Z,44.52
2023-05-22T14:37:37.128Z,41.71
2023-05-22T14:40:04.500Z,42.23
2023-05-22T14:42:31.276Z,44.03
2023-05-22T14:44:58.311Z,42.77
2023-05-22T14:47:25.092Z,42.95
2023-05-22T14:49:57.698Z,42.15
2023-05-22T14:52:29.770Z,42.63
2023-05-22T14:54:56.462Z,43.67
2023-05-22T14:57:23.191Z,44.83
2023-05-22T14:59:49.839Z,45.50
2023-05-22T15:02:16.530Z,44.92
2023-05-22T15:04:44.931Z,45.26
2023-05-22T15:07:12.046Z,45.15
2023-05-22T15:09:38.837Z,45.57
2023-05-22T15:12:06.057Z,45.53
2023-05-22T15:14:32.795Z,45.72
2023-05-22T15:17:00.063Z,47.12
2023-05-22T15:19:26.871Z,45.92
2023-05-22T15:21:55.272Z,46.00
2023-05-22T15:24:23.900Z,45.43
2023-05-22T15:26:50.903Z,45.71
2023-05-22T15:29:18.061Z,47.21
2023-05-22T15:31:44.825Z,48.17
2023-05-22T15:34:11.656Z,48.45
2023-05-22T15:36:38.506Z,48.94
2023-05-22T15:39:05.248Z,48.18
2023-05-22T15:41:32.073Z,47.23
2023-05-22T15:43:58.761Z,46.88
2023-05-22T15:46:25.509Z,46.79
2023-05-22T15:48:52.230Z,48.09
2023-05-22T15:51:18.978Z,49.60
2023-05-22T15:53:45.800Z,54.21
2023-05-22T15:56:12.469Z,57.24
2023-05-22T15:58:39.297Z,57.37
2023-05-22T16:01:07.973Z,54.75
2023-05-22T16:03:34.767Z,59.08
2023-05-22T16:06:01.585Z,61.31
2023-05-22T16:08:28.347Z,57.20
2023-05-22T16:10:56.900Z,52.09
2023-05-22T16:13:23.698Z,51.51
2023-05-22T16:15:50.403Z,48.00
2023-05-22T16:18:17.151Z,51.46
2023-05-22T16:20:43.884Z,46.90
2023-05-22T16:23:10.651Z,45.82
2023-05-22T16:25:37.455Z,47.95
2023-05-22T16:28:05.840Z,48.06
2023-05-22T16:30:32.579Z,50.65
2023-05-22T16:32:59.315Z,52.60
2023-05-22T16:35:26.168Z,55.42
2023-05-22T16:37:52.915Z,56.38
2023-05-22T16:40:19.877Z,53.44
2023-05-22T16:42:47.561Z,53.92
2023-05-22T16:45:14.457Z,50.70
2023-05-22T16:47:41.339Z,51.75
2023-05-22T16:50:08.850Z,52.22
2023-05-22T16:52:36.325Z,52.43
2023-05-22T16:55:03.054Z,49.01
2023-05-22T16:57:29.779Z,47.83
2023-05-22T16:59:57.917Z,48.34
2023-05-22T17:02:25.186Z,49.57
2023-05-22T17:04:52.334Z,50.03
2023-05-22T17:07:19.042Z,52.99
2023-05-22T17:09:45.777Z,54.73
2023-05-22T17:12:12.486Z,56.23
2023-05-22T17:14:39.226Z,55.70
2023-05-22T17:17:06.624Z,53.00
2023-05-22T17:19:33.434Z,53.95
2023-05-22T17:22:00.216Z,54.35
2023-05-22T17:24:28.036Z,54.29
2023-05-22T17:26:54.775Z,54.42
2023-05-22T17:29:21.495Z,55.37
2023-05-22T17:31:48.310Z,58.46
2023-05-22T17:34:15.049Z,57.94
2023-05-22T17:36:44.661Z,58.11
2023-05-22T17:39:11.689Z,60.60
2023-05-22T17:41:38.562Z,59.92
2023-05-22T17:44:05.286Z,61.95
2023-05-22T17:46:32.242Z,61.67
2023-05-22T17:48:59.127Z,61.47
2023-05-22T17:51:25.848Z,60.86
2023-05-22T17:53:56.316Z,60.92
2023-05-22T17:56:23.753Z,60.64
2023-05-22T17:58:51.120Z,60.07
2023-05-22T18:01:18.536Z,59.75
2023-05-22T18:03:46.168Z,59.88
2023-05-22T18:06:13.475Z,59.78
2023-05-22T18:11:17.299Z,58.00
2023-05-22T18:13:44.166Z,57.39
2023-05-22T18:16:10.944Z,58.24
2023-05-22T18:18:37.668Z,59.10
2023-05-22T18:21:04.731Z,60.05
2023-05-22T18:23:31.589Z,59.28
2023-05-22T18:25:58.315Z,59.33
2023-05-22T18:28:27.908Z,59.97
2023-05-22T18:30:55.139Z,60.87
2023-05-22T18:33:24.954Z,61.58
2023-05-22T18:35:51.675Z,61.80
2023-05-22T18:38:18.365Z,61.59
2023-05-22T18:40:45.142Z,61.52
2023-05-22T18:43:12.035Z,62.14
2023-05-22T18:45:38.787Z,62.52
2023-05-22T18:48:05.579Z,64.62
2023-05-22T18:50:32.558Z,67.41
2023-05-22T18:52:59.361Z,69.49
2023-05-22T18:57:57.300Z,71.20
2023-05-22T19:00:23.972Z,71.91
2023-05-22T19:02:50.687Z,70.97
2023-05-22T19:05:17.388Z,69.79
2023-05-22T19:10:15.353Z,71.39
2023-05-22T19:12:42.115Z,71.62
2023-05-22T19:15:09.503Z,71.78
2023-05-22T19:17:36.363Z,71.78
2023-05-22T19:20:06.654Z,71.53
2023-05-22T19:22:33.542Z,71.76
2023-05-22T19:25:00.430Z,72.01
2023-05-22T19:27:27.180Z,71.56
2023-05-22T19:29:53.878Z,71.95
2023-05-22T19:32:20.799Z,71.53
2023-05-22T19:34:47.710Z,72.13
2023-05-22T19:37:14.400Z,72.60
2023-05-22T19:39:41.232Z,74.37
2023-05-22T19:42:08.578Z,72.97
2023-05-22T19:44:35.313Z,73.14
2023-05-22T19:47:01.992Z,71.49
2023-05-22T19:49:31.730Z,72.23
2023-05-22T19:51:59.752Z,72.46
2023-05-22T19:54:26.624Z,73.72
2023-05-22T19:56:53.367Z,75.15
2023-05-22T19:59:20.164Z,76.52
2023-05-22T20:01:46.927Z,76.45
2023-05-22T20:04:14.305Z,76.22
2023-05-22T20:06:42.313Z,77.75
2023-05-22T20:09:09.235Z,77.73
2023-05-22T20:11:36.343Z,78.27
2023-05-22T20:14:03.680Z,78.33
2023-05-22T20:16:30.442Z,79.50
2023-05-22T20:18:57.306Z,80.58
2023-05-22T20:21:24.053Z,79.13
2023-05-22T20:23:51.567Z,78.68
2023-05-22T20:26:18.414Z,79.65
2023-05-22T20:28:45.070Z,80.49
2023-05-22T20:31:11.739Z,79.43
2023-05-22T20:33:38.441Z,76.84
2023-05-22T20:36:05.338Z,78.00
2023-05-22T20:38:34.823Z,78.08
2023-05-22T20:41:02.314Z,77.22
2023-05-22T20:43:31.002Z,76.76
2023-05-22T20:45:57.874Z,76.97
2023-05-22T20:48:24.626Z,77.47
2023-05-22T20:50:51.421Z,77.73
2023-05-22T20:53:18.420Z,77.90
2023-05-22T20:55:45.342Z,78.41
2023-05-22T20:58:12.045Z,78.58
2023-05-22T21:00:41.829Z,78.68
2023-05-22T21:03:08.856Z,78.79
2023-05-22T21:05:35.928Z,78.45
2023-05-22T21:08:02.663Z,78.50
2023-05-22T21:10:29.340Z,78.64
2023-05-22T21:12:56.086Z,78.83
2023-05-22T21:15:22.801Z,78.12
2023-05-22T21:17:49.570Z,78.55
2023-05-22T21:20:16.416Z,78.32
2023-05-22T21:22:43.205Z,78.79
2023-05-22T21:25:10.073Z,79.11
2023-05-22T21:27:36.740Z,78.33
2023-05-22T21:30:03.738Z,78.73
2023-05-22T21:32:30.427Z,80.07
2023-05-22T21:34:57.159Z,79.71
2023-05-22T21:37:23.884Z,79.89
2023-05-22T21:39:50.736Z,80.02
2023-05-22T21:42:17.962Z,79.44
2023-05-22T21:44:44.610Z,80.04
2023-05-22T21:47:11.715Z,80.85
2023-05-22T21:49:39.745Z,80.91
2023-05-22T21:52:06.692Z,81.04
2023-05-22T21:54:33.397Z,80.73
2023-05-22T21:57:00.221Z,80.25
2023-05-22T21:59:27.083Z,80.60
2023-05-22T22:04:32.091Z,79.90
2023-05-22T22:06:58.802Z,80.07
2023-05-22T22:09:25.484Z,80.11
2023-05-22T22:14:24.171Z,80.67
2023-05-22T22:16:54.601Z,80.53
2023-05-22T22:19:22.966Z,79.85
2023-05-22T22:21:50.651Z,80.63
2023-05-22T22:24:17.440Z,81.90
2023-05-22T22:26:49.539Z,82.15
2023-05-22T22:29:16.687Z,81.74
2023-05-22T22:31:43.663Z,81.63
2023-05-22T22:34:10.422Z,81.67
2023-05-22T22:36:37.156Z,82.23
2023-05-22T22:39:04.201Z,82.57
2023-05-22T22:41:30.971Z,82.61
2023-05-22T22:43:57.660Z,83.41
2023-05-22T22:46:24.458Z,83.20
2023-05-22T22:48:51.397Z,83.22
2023-05-22T22:53:55.752Z,82.75
2023-05-22T22:56:24.344Z,82.58
2023-05-22T22:58:51.404Z,82.63
2023-05-22T23:01:18.054Z,83.68
2023-05-22T23:03:44.844Z,83.21
2023-05-22T23:06:11.516Z,83.73
2023-05-22T23:08:38.301Z,84.84
2023-05-22T23:11:05.305Z,84.61
2023-05-22T23:13:32.065Z,84.63
2023-05-22T23:15:58.856Z,84.50
2023-05-22T23:18:25.903Z,85.56
2023-05-22T23:20:53.175Z,85.54
2023-05-22T23:23:20.038Z,86.44
2023-05-22T23:25:46.687Z,86.74
2023-05-22T23:28:13.359Z,86.81
2023-05-22T23:30:40.071Z,87.93
2023-05-22T23:33:06.735Z,88.31
2023-05-22T23:35:33.442Z,87.62
2023-05-22T23:38:00.539Z,88.94
2023-05-22T23:40:27.344Z,89.03
2023-05-22T23:42:54.019Z,89.21
2023-05-22T23:45:20.830Z,90.65
2023-05-22T23:47:47.494Z,90.86
2023-05-22T23:50:14.336Z,92.00
2023-05-22T23:52:41.079Z,92.10
2023-05-22T23:55:08.645Z,91.68
2023-05-22T23:57:35.299Z,91.94
